Time;durP1;ratioP1;P1;durP2;ratioP2;P2;SDS_P1;SDS_P2;PMS_P1;PMS_P2;Temp;Humidity;BMP_temperature;BMP_pressure;BME280_temperature;BME280_humidity;BME280_pressure;Samples;Min_cycle;Max_cycle;Signal;HPM_P1;HPM_P2
2021/12/30 00:00:59;;;;;;;;;;;20.40;38.30;;;;;;482199;246;1677;-46
2021/12/30 00:03:00;;;;;;;;;;;20.30;38.30;;;;;;482267;246;1270;-46
2021/12/30 00:05:01;;;;;;;;;;;20.40;38.30;;;;;;482692;246;1051;-46
2021/12/30 00:07:02;;;;;;;;;;;20.40;38.30;;;;;;482026;246;1207;-46
2021/12/30 00:09:04;;;;;;;;;;;20.40;38.20;;;;;;482250;246;1174;-46
2021/12/30 00:11:05;;;;;;;;;;;20.40;38.30;;;;;;482153;246;1238;-45
2021/12/30 00:13:06;;;;;;;;;;;20.30;38.20;;;;;;482629;246;2193;-46
2021/12/30 00:15:08;;;;;;;;;;;20.40;38.30;;;;;;482561;246;1071;-46
2021/12/30 00:17:09;;;;;;;;;;;20.40;38.40;;;;;;482319;246;1606;-47
2021/12/30 00:19:12;;;;;;;;;;;20.40;38.40;;;;;;482716;246;1109;-46
2021/12/30 00:21:12;;;;;;;;;;;20.40;38.20;;;;;;482414;246;1528;-46
2021/12/30 00:23:13;;;;;;;;;;;20.40;38.20;;;;;;482237;246;1179;-46
2021/12/30 00:25:15;;;;;;;;;;;20.40;38.20;;;;;;482561;246;1023;-46
2021/12/30 00:27:16;;;;;;;;;;;20.30;38.20;;;;;;482247;246;1164;-46
2021/12/30 00:29:17;;;;;;;;;;;20.40;38.30;;;;;;482734;246;1032;-46
2021/12/30 00:31:18;;;;;;;;;;;20.40;38.30;;;;;;482653;246;1435;-47
2021/12/30 00:33:20;;;;;;;;;;;20.40;38.30;;;;;;482401;246;2196;-46
2021/12/30 00:35:21;;;;;;;;;;;20.40;38.30;;;;;;482441;246;1049;-46
2021/12/30 00:37:22;;;;;;;;;;;20.30;38.40;;;;;;482643;246;1592;-46
2021/12/30 00:39:23;;;;;;;;;;;20.30;38.40;;;;;;482270;246;1075;-46
2021/12/30 00:41:25;;;;;;;;;;;20.40;38.30;;;;;;482487;246;1195;-46
2021/12/30 00:43:26;;;;;;;;;;;20.30;38.30;;;;;;482609;246;1381;-46
2021/12/30 00:45:27;;;;;;;;;;;20.30;38.30;;;;;;482512;246;1434;-46
2021/12/30 00:47:29;;;;;;;;;;;20.30;38.30;;;;;;482590;246;1252;-46
2021/12/30 00:49:30;;;;;;;;;;;20.30;38.30;;;;;;482715;246;1208;-46
2021/12/30 00:51:31;;;;;;;;;;;20.30;38.40;;;;;;482435;246;1219;-46
2021/12/30 00:53:33;;;;;;;;;;;20.30;38.30;;;;;;482230;246;2184;-46
2021/12/30 00:55:34;;;;;;;;;;;20.30;38.30;;;;;;482287;246;1356;-46
2021/12/30 00:57:35;;;;;;;;;;;20.30;38.40;;;;;;482183;246;1272;-46
2021/12/30 00:59:37;;;;;;;;;;;20.30;38.40;;;;;;482719;246;1045;-46
2021/12/30 01:01:38;;;;;;;;;;;20.40;38.30;;;;;;482538;246;1361;-46
2021/12/30 01:03:39;;;;;;;;;;;20.30;38.40;;;;;;482300;246;1065;-46
2021/12/30 01:05:41;;;;;;;;;;;20.30;38.30;;;;;;482684;246;1179;-47
2021/12/30 01:07:42;;;;;;;;;;;20.40;38.30;;;;;;482100;246;1185;-46
2021/12/30 01:09:43;;;;;;;;;;;20.30;38.40;;;;;;482606;246;1072;-47
2021/12/30 01:11:45;;;;;;;;;;;20.30;38.40;;;;;;482130;246;1348;-46
2021/12/30 01:13:51;;;;;;;;;;;20.30;38.40;;;;;;482640;246;2114;-46
2021/12/30 01:15:56;;;;;;;;;;;20.30;38.40;;;;;;482145;247;1870;-46
2021/12/30 01:17:54;;;;;;;;;;;20.30;38.50;;;;;;481973;247;2036;-46
2021/12/30 01:19:51;;;;;;;;;;;20.30;38.50;;;;;;482073;247;2068;-46
2021/12/30 01:21:52;;;;;;;;;;;20.30;38.50;;;;;;482262;246;2271;-45
2021/12/30 01:23:53;;;;;;;;;;;20.30;38.50;;;;;;482245;246;1070;-46
2021/12/30 01:25:55;;;;;;;;;;;20.20;38.50;;;;;;482347;246;1860;-46
2021/12/30 01:27:56;;;;;;;;;;;20.20;38.50;;;;;;482198;247;2394;-47
2021/12/30 01:29:57;;;;;;;;;;;20.20;38.50;;;;;;482296;246;1229;-47
2021/12/30 01:31:58;;;;;;;;;;;20.20;38.50;;;;;;482260;246;1202;-46
2021/12/30 01:34:00;;;;;;;;;;;20.20;38.60;;;;;;482632;246;2185;-46
2021/12/30 01:36:01;;;;;;;;;;;20.20;38.60;;;;;;482422;246;1329;-46
2021/12/30 01:38:02;;;;;;;;;;;20.20;38.50;;;;;;482261;246;1197;-46
2021/12/30 01:40:04;;;;;;;;;;;20.20;38.50;;;;;;482693;246;1073;-46
2021/12/30 01:42:05;;;;;;;;;;;20.20;38.60;;;;;;482443;246;1641;-46
2021/12/30 01:44:06;;;;;;;;;;;20.20;38.50;;;;;;482261;246;1057;-46
2021/12/30 01:46:07;;;;;;;;;;;20.20;38.50;;;;;;482147;246;1384;-47
2021/12/30 01:48:09;;;;;;;;;;;20.20;38.60;;;;;;482219;246;1397;-46
2021/12/30 01:50:10;;;;;;;;;;;20.20;38.60;;;;;;482272;246;1115;-46
2021/12/30 01:52:11;;;;;;;;;;;20.20;38.60;;;;;;482432;246;1317;-46
2021/12/30 01:54:13;;;;;;;;;;;20.20;38.60;;;;;;482272;246;2193;-46
2021/12/30 01:56:14;;;;;;;;;;;20.20;38.50;;;;;;482514;246;1124;-46
2021/12/30 01:58:15;;;;;;;;;;;20.20;38.50;;;;;;482244;246;1125;-46
2021/12/30 02:00:17;;;;;;;;;;;20.20;38.50;;;;;;482593;246;1071;-46
2021/12/30 02:02:18;;;;;;;;;;;20.20;38.60;;;;;;482262;246;1606;-46
2021/12/30 02:04:19;;;;;;;;;;;20.20;38.60;;;;;;482249;246;1057;-47
2021/12/30 02:06:21;;;;;;;;;;;20.20;38.60;;;;;;482176;246;1167;-46
2021/12/30 02:08:22;;;;;;;;;;;20.20;38.60;;;;;;482608;246;1152;-46
2021/12/30 02:10:23;;;;;;;;;;;20.20;38.60;;;;;;482656;246;1070;-46
2021/12/30 02:12:25;;;;;;;;;;;20.20;38.60;;;;;;482151;246;1263;-46
2021/12/30 02:14:26;;;;;;;;;;;20.20;38.70;;;;;;482319;246;2129;-46
2021/12/30 02:16:27;;;;;;;;;;;20.10;38.60;;;;;;482116;246;1172;-46
2021/12/30 02:18:28;;;;;;;;;;;20.20;38.70;;;;;;482263;246;1132;-46
2021/12/30 02:20:30;;;;;;;;;;;20.20;38.70;;;;;;482285;246;1169;-46
2021/12/30 02:22:31;;;;;;;;;;;20.20;38.70;;;;;;482291;246;1272;-46
2021/12/30 02:24:34;;;;;;;;;;;20.20;38.70;;;;;;482292;246;1045;-46
2021/12/30 02:26:34;;;;;;;;;;;20.20;38.70;;;;;;482116;247;2136;-46
2021/12/30 02:28:35;;;;;;;;;;;20.20;38.70;;;;;;482311;246;1206;-46
2021/12/30 02:30:37;;;;;;;;;;;20.10;38.60;;;;;;482511;246;1402;-46
2021/12/30 02:32:38;;;;;;;;;;;20.20;38.60;;;;;;482194;246;1432;-46
2021/12/30 02:34:39;;;;;;;;;;;20.20;38.60;;;;;;482245;246;2118;-46
2021/12/30 02:36:41;;;;;;;;;;;20.10;38.70;;;;;;482262;246;1569;-46
2021/12/30 02:38:45;;;;;;;;;;;20.20;38.70;;;;;;482494;246;1128;-46
2021/12/30 02:40:44;;;;;;;;;;;20.20;38.70;;;;;;482389;247;2288;-46
2021/12/30 02:42:45;;;;;;;;;;;20.20;38.70;;;;;;482186;246;1468;-46
2021/12/30 02:44:46;;;;;;;;;;;20.10;38.60;;;;;;482559;246;1254;-46
2021/12/30 02:46:47;;;;;;;;;;;20.20;38.70;;;;;;482219;246;1256;-46
2021/12/30 02:48:52;;;;;;;;;;;20.10;38.70;;;;;;482383;246;1242;-46
2021/12/30 02:50:50;;;;;;;;;;;20.10;38.80;;;;;;481975;247;1952;-46
2021/12/30 02:52:51;;;;;;;;;;;20.20;38.80;;;;;;482188;246;1181;-46
2021/12/30 02:54:53;;;;;;;;;;;20.20;38.60;;;;;;482279;246;2193;-46
2021/12/30 02:56:54;;;;;;;;;;;20.40;38.20;;;;;;482137;246;1673;-46
2021/12/30 02:58:55;;;;;;;;;;;20.60;37.80;;;;;;482215;246;1231;-46
2021/12/30 03:00:57;;;;;;;;;;;20.80;37.50;;;;;;482200;246;1163;-46
2021/12/30 03:02:58;;;;;;;;;;;20.90;37.30;;;;;;482183;246;1275;-46
2021/12/30 03:05:00;;;;;;;;;;;21.00;37.10;;;;;;482236;246;999;-46
2021/12/30 03:07:01;;;;;;;;;;;21.10;36.90;;;;;;482166;246;1303;-46
2021/12/30 03:09:02;;;;;;;;;;;21.20;36.80;;;;;;482423;246;1206;-47
2021/12/30 03:11:04;;;;;;;;;;;21.20;36.60;;;;;;482215;246;1733;-46
2021/12/30 03:13:05;;;;;;;;;;;21.30;36.50;;;;;;482302;246;1237;-47
2021/12/30 03:15:06;;;;;;;;;;;21.30;36.40;;;;;;482593;246;2196;-46
2021/12/30 03:17:07;;;;;;;;;;;21.40;36.40;;;;;;482541;246;1326;-46
2021/12/30 03:19:09;;;;;;;;;;;21.40;36.30;;;;;;482706;246;1216;-47
2021/12/30 03:21:10;;;;;;;;;;;21.50;36.30;;;;;;482665;246;1370;-47
2021/12/30 03:23:11;;;;;;;;;;;21.50;36.20;;;;;;482285;246;1145;-47
2021/12/30 03:25:13;;;;;;;;;;;21.50;36.10;;;;;;482287;246;1121;-47
2021/12/30 03:27:14;;;;;;;;;;;21.60;36.10;;;;;;482474;246;1300;-46
2021/12/30 03:29:15;;;;;;;;;;;21.60;36.00;;;;;;482238;246;1264;-46
2021/12/30 03:31:17;;;;;;;;;;;21.60;36.00;;;;;;482315;246;1321;-46
2021/12/30 03:33:20;;;;;;;;;;;21.70;36.00;;;;;;482247;246;1451;-47
2021/12/30 03:35:19;;;;;;;;;;;21.70;36.00;;;;;;482372;247;2511;-46
2021/12/30 03:37:21;;;;;;;;;;;21.70;35.80;;;;;;482280;246;1231;-47
2021/12/30 03:39:22;;;;;;;;;;;21.70;35.80;;;;;;482217;246;1239;-47
2021/12/30 03:41:23;;;;;;;;;;;21.80;35.90;;;;;;482122;244;1467;-47
2021/12/30 03:43:24;;;;;;;;;;;21.80;35.80;;;;;;482264;246;1212;-46
2021/12/30 03:45:26;;;;;;;;;;;21.80;35.70;;;;;;482255;246;1375;-47
2021/12/30 03:47:27;;;;;;;;;;;21.80;35.70;;;;;;482264;246;1252;-47
2021/12/30 03:49:28;;;;;;;;;;;21.90;35.70;;;;;;482240;246;1184;-47
2021/12/30 03:51:37;;;;;;;;;;;21.90;35.70;;;;;;482403;246;1240;-47
2021/12/30 03:53:31;;;;;;;;;;;21.90;35.60;;;;;;481822;247;2401;-47
2021/12/30 03:55:32;;;;;;;;;;;21.90;35.60;;;;;;482235;246;2192;-47
2021/12/30 03:57:34;;;;;;;;;;;22.00;35.60;;;;;;482219;246;1333;-47
2021/12/30 03:59:35;;;;;;;;;;;22.00;35.60;;;;;;482718;246;1056;-47
2021/12/30 04:01:36;;;;;;;;;;;22.00;35.60;;;;;;482386;246;1343;-47
2021/12/30 04:03:38;;;;;;;;;;;22.00;35.60;;;;;;482676;246;1093;-47
2021/12/30 04:05:39;;;;;;;;;;;22.00;35.50;;;;;;482669;246;1079;-46
2021/12/30 04:07:41;;;;;;;;;;;22.00;35.50;;;;;;482337;246;1253;-46
2021/12/30 04:09:42;;;;;;;;;;;22.10;35.50;;;;;;482310;246;1030;-46
2021/12/30 04:11:44;;;;;;;;;;;22.10;35.50;;;;;;482393;246;1341;-47
2021/12/30 04:13:45;;;;;;;;;;;22.00;35.50;;;;;;482282;246;1228;-47
2021/12/30 04:15:46;;;;;;;;;;;22.10;35.50;;;;;;482288;246;2129;-46
2021/12/30 04:17:48;;;;;;;;;;;22.10;35.50;;;;;;482243;246;1072;-47
2021/12/30 04:19:49;;;;;;;;;;;22.10;35.40;;;;;;482560;246;1089;-47
2021/12/30 04:21:53;;;;;;;;;;;22.10;35.40;;;;;;482500;246;1311;-47
2021/12/30 04:23:53;;;;;;;;;;;22.10;35.40;;;;;;482137;246;2350;-46
2021/12/30 04:25:54;;;;;;;;;;;22.10;35.40;;;;;;482607;246;1776;-46
2021/12/30 04:27:55;;;;;;;;;;;22.10;35.40;;;;;;482507;246;1241;-46
2021/12/30 04:29:56;;;;;;;;;;;22.20;35.40;;;;;;482327;246;1089;-47
2021/12/30 04:31:59;;;;;;;;;;;22.20;35.40;;;;;;482118;246;1329;-47
2021/12/30 04:33:59;;;;;;;;;;;22.20;35.40;;;;;;482666;246;1986;-47
2021/12/30 04:36:00;;;;;;;;;;;22.20;35.40;;;;;;482476;246;2133;-46
2021/12/30 04:38:02;;;;;;;;;;;22.20;35.40;;;;;;482381;246;1619;-47
2021/12/30 04:40:04;;;;;;;;;;;22.20;35.40;;;;;;482320;246;1081;-46
2021/12/30 04:42:04;;;;;;;;;;;22.20;35.40;;;;;;482266;246;2061;-46
2021/12/30 04:44:06;;;;;;;;;;;22.20;35.40;;;;;;482276;246;1228;-47
2021/12/30 04:46:07;;;;;;;;;;;22.30;35.40;;;;;;482431;246;1179;-47
2021/12/30 04:48:08;;;;;;;;;;;22.20;35.30;;;;;;482242;246;1240;-47
2021/12/30 04:50:10;;;;;;;;;;;22.30;35.40;;;;;;482583;246;1123;-47
2021/12/30 04:52:11;;;;;;;;;;;22.30;35.30;;;;;;482597;246;1207;-46
2021/12/30 04:54:12;;;;;;;;;;;22.30;35.30;;;;;;482745;246;2114;-47
2021/12/30 04:56:13;;;;;;;;;;;22.30;35.30;;;;;;482659;246;1215;-47
2021/12/30 04:58:15;;;;;;;;;;;22.30;35.30;;;;;;482434;246;1233;-46
2021/12/30 05:00:16;;;;;;;;;;;22.30;35.30;;;;;;482554;246;1098;-47
2021/12/30 05:02:18;;;;;;;;;;;22.30;35.30;;;;;;482161;246;1156;-47
2021/12/30 05:04:19;;;;;;;;;;;22.30;35.30;;;;;;482230;246;1075;-46
2021/12/30 05:06:20;;;;;;;;;;;22.30;35.30;;;;;;482142;246;1366;-46
2021/12/30 05:08:21;;;;;;;;;;;22.30;35.30;;;;;;482140;246;1273;-47
2021/12/30 05:10:23;;;;;;;;;;;22.30;35.30;;;;;;482273;246;1055;-47
2021/12/30 05:12:24;;;;;;;;;;;22.40;35.30;;;;;;482213;246;1209;-47
2021/12/30 05:14:25;;;;;;;;;;;22.30;35.20;;;;;;482442;246;2192;-46
2021/12/30 05:16:27;;;;;;;;;;;22.40;35.30;;;;;;482367;246;1328;-47
2021/12/30 05:18:32;;;;;;;;;;;22.40;35.30;;;;;;482480;246;1058;-46
2021/12/30 05:20:31;;;;;;;;;;;22.40;35.30;;;;;;482125;247;2352;-47
2021/12/30 05:22:33;;;;;;;;;;;22.40;35.30;;;;;;482148;246;1209;-47
2021/12/30 05:24:34;;;;;;;;;;;22.40;35.30;;;;;;482372;246;1236;-47
2021/12/30 05:26:35;;;;;;;;;;;22.40;35.30;;;;;;482235;246;1427;-47
2021/12/30 05:28:37;;;;;;;;;;;22.40;35.30;;;;;;482644;246;1183;-47
2021/12/30 05:30:38;;;;;;;;;;;22.40;35.30;;;;;;482217;246;1144;-46
2021/12/30 05:32:39;;;;;;;;;;;22.40;35.30;;;;;;482249;246;1169;-47
2021/12/30 05:34:41;;;;;;;;;;;22.40;35.30;;;;;;482518;246;2117;-47
2021/12/30 05:36:42;;;;;;;;;;;22.50;35.30;;;;;;482354;246;1449;-46
2021/12/30 05:38:43;;;;;;;;;;;22.40;35.30;;;;;;482333;246;1241;-46
2021/12/30 05:40:45;;;;;;;;;;;22.50;35.30;;;;;;482392;246;1226;-47
2021/12/30 05:42:46;;;;;;;;;;;22.50;35.30;;;;;;482093;246;1159;-46
2021/12/30 05:44:47;;;;;;;;;;;22.50;35.30;;;;;;482344;246;1143;-47
2021/12/30 05:46:49;;;;;;;;;;;22.50;35.30;;;;;;482206;246;1598;-47
2021/12/30 05:48:50;;;;;;;;;;;22.50;35.30;;;;;;482241;246;1241;-47
2021/12/30 05:50:51;;;;;;;;;;;22.50;35.30;;;;;;482509;246;1259;-47
2021/12/30 05:52:52;;;;;;;;;;;22.50;35.30;;;;;;482611;246;1305;-47
2021/12/30 05:54:54;;;;;;;;;;;22.50;35.30;;;;;;482567;246;2200;-47
2021/12/30 05:56:55;;;;;;;;;;;22.50;35.30;;;;;;482417;246;1254;-47
2021/12/30 05:58:56;;;;;;;;;;;22.50;35.30;;;;;;482332;246;1221;-47
2021/12/30 06:00:58;;;;;;;;;;;22.50;35.30;;;;;;482340;246;1264;-47
2021/12/30 06:02:59;;;;;;;;;;;22.50;35.30;;;;;;482169;246;1410;-47
2021/12/30 06:05:00;;;;;;;;;;;22.50;35.30;;;;;;482384;246;1725;-47
2021/12/30 06:07:02;;;;;;;;;;;22.50;35.30;;;;;;482098;246;1403;-47
2021/12/30 06:09:03;;;;;;;;;;;22.50;35.30;;;;;;482154;246;1200;-47
2021/12/30 06:11:04;;;;;;;;;;;22.60;35.30;;;;;;482324;246;1314;-47
2021/12/30 06:13:06;;;;;;;;;;;22.60;35.30;;;;;;482435;246;1176;-47
2021/12/30 06:15:07;;;;;;;;;;;22.60;35.30;;;;;;482161;246;2193;-47
2021/12/30 06:17:10;;;;;;;;;;;22.60;35.30;;;;;;482536;246;1324;-46
2021/12/30 06:19:10;;;;;;;;;;;22.60;35.30;;;;;;482173;247;2147;-47
2021/12/30 06:21:11;;;;;;;;;;;22.60;35.30;;;;;;482398;246;1172;-46
2021/12/30 06:23:13;;;;;;;;;;;22.60;35.30;;;;;;482168;246;1192;-47
2021/12/30 06:25:14;;;;;;;;;;;22.60;35.30;;;;;;482523;246;1046;-47
2021/12/30 06:27:15;;;;;;;;;;;22.60;35.20;;;;;;482610;246;1320;-46
2021/12/30 06:29:16;;;;;;;;;;;22.60;35.30;;;;;;482451;246;1308;-47
2021/12/30 06:31:18;;;;;;;;;;;22.60;35.30;;;;;;482413;246;1372;-46
2021/12/30 06:33:19;;;;;;;;;;;22.50;35.40;;;;;;482194;246;1261;-47
2021/12/30 06:35:21;;;;;;;;;;;22.50;35.50;;;;;;482351;246;2189;-47
2021/12/30 06:37:22;;;;;;;;;;;22.40;35.70;;;;;;482183;246;1188;-46
2021/12/30 06:39:23;;;;;;;;;;;22.10;36.10;;;;;;482203;246;1076;-47
2021/12/30 06:41:25;;;;;;;;;;;22.00;36.50;;;;;;482071;246;1361;-46
2021/12/30 06:43:26;;;;;;;;;;;21.80;36.80;;;;;;482317;246;1207;-46
2021/12/30 06:45:27;;;;;;;;;;;21.70;37.10;;;;;;482307;246;1221;-46
2021/12/30 06:47:29;;;;;;;;;;;21.60;37.20;;;;;;482069;246;1330;-46
2021/12/30 06:49:35;;;;;;;;;;;21.50;37.40;;;;;;482212;246;1092;-46
2021/12/30 06:51:35;;;;;;;;;;;21.40;37.60;;;;;;481848;247;2344;-46
2021/12/30 06:53:34;;;;;;;;;;;21.30;37.70;;;;;;482024;246;1526;-47
2021/12/30 06:55:35;;;;;;;;;;;21.30;37.70;;;;;;482214;246;2106;-46
2021/12/30 06:57:36;;;;;;;;;;;21.30;37.80;;;;;;482132;246;1349;-47
2021/12/30 06:59:37;;;;;;;;;;;21.20;37.90;;;;;;482277;246;1300;-46
2021/12/30 07:01:39;;;;;;;;;;;21.20;38.00;;;;;;482198;246;1323;-46
2021/12/30 07:03:40;;;;;;;;;;;21.20;38.00;;;;;;482154;246;1265;-46
2021/12/30 07:05:41;;;;;;;;;;;21.20;38.00;;;;;;482138;246;1541;-46
2021/12/30 07:07:44;;;;;;;;;;;21.20;38.00;;;;;;482028;246;1639;-47
2021/12/30 07:09:47;;;;;;;;;;;21.20;38.00;;;;;;482119;247;1812;-46
2021/12/30 07:11:48;;;;;;;;;;;21.10;38.10;;;;;;482094;247;2314;-46
2021/12/30 07:13:48;;;;;;;;;;;21.10;38.20;;;;;;482267;246;2154;-46
2021/12/30 07:15:49;;;;;;;;;;;21.10;38.30;;;;;;482074;246;2153;-46
2021/12/30 07:17:51;;;;;;;;;;;21.10;38.30;;;;;;482098;246;1223;-46
2021/12/30 07:19:52;;;;;;;;;;;21.00;38.40;;;;;;482129;246;1090;-47
2021/12/30 07:21:53;;;;;;;;;;;21.00;38.40;;;;;;482004;246;1178;-46
2021/12/30 07:23:54;;;;;;;;;;;21.00;38.50;;;;;;482188;246;1044;-46
2021/12/30 07:25:56;;;;;;;;;;;21.00;38.50;;;;;;482120;246;1208;-46
2021/12/30 07:27:57;;;;;;;;;;;21.00;38.60;;;;;;482119;246;1234;-46
2021/12/30 07:29:59;;;;;;;;;;;21.00;38.70;;;;;;482151;246;1172;-46
2021/12/30 07:32:00;;;;;;;;;;;20.90;38.70;;;;;;482010;246;1210;-47
2021/12/30 07:34:01;;;;;;;;;;;21.00;38.70;;;;;;482310;246;1046;-46
2021/12/30 07:36:03;;;;;;;;;;;20.90;38.80;;;;;;482463;246;2198;-47
2021/12/30 07:38:04;;;;;;;;;;;20.90;38.80;;;;;;482078;246;1227;-46
2021/12/30 07:40:05;;;;;;;;;;;20.90;38.90;;;;;;482303;246;1080;-47
2021/12/30 07:42:07;;;;;;;;;;;20.90;38.90;;;;;;482200;243;1276;-46
2021/12/30 07:44:09;;;;;;;;;;;20.90;39.00;;;;;;482380;246;1060;-46
2021/12/30 07:46:10;;;;;;;;;;;20.90;39.10;;;;;;482218;246;1792;-46
2021/12/30 07:48:11;;;;;;;;;;;20.80;39.10;;;;;;482097;247;2184;-46
2021/12/30 07:50:12;;;;;;;;;;;20.90;39.20;;;;;;482238;246;1030;-47
2021/12/30 07:52:13;;;;;;;;;;;20.90;39.20;;;;;;482186;246;1232;-46
2021/12/30 07:54:15;;;;;;;;;;;20.80;39.40;;;;;;482147;246;1083;-46
2021/12/30 07:56:16;;;;;;;;;;;20.80;39.50;;;;;;482213;246;2208;-47
2021/12/30 07:58:17;;;;;;;;;;;20.80;39.50;;;;;;482533;246;1200;-46
2021/12/30 08:00:19;;;;;;;;;;;20.80;39.50;;;;;;482338;246;1263;-47
2021/12/30 08:02:20;;;;;;;;;;;20.80;39.40;;;;;;482142;246;1550;-46
2021/12/30 08:04:21;;;;;;;;;;;20.80;39.50;;;;;;482234;246;1044;-47
2021/12/30 08:06:26;;;;;;;;;;;20.80;39.50;;;;;;482320;243;1213;-46
2021/12/30 08:08:24;;;;;;;;;;;20.70;39.60;;;;;;481870;247;1801;-46
2021/12/30 08:10:26;;;;;;;;;;;20.70;39.60;;;;;;482067;246;1345;-46
2021/12/30 08:12:27;;;;;;;;;;;20.80;39.60;;;;;;482013;246;2336;-47
2021/12/30 08:14:28;;;;;;;;;;;20.80;39.70;;;;;;482214;246;1046;-46
2021/12/30 08:16:29;;;;;;;;;;;20.70;39.80;;;;;;482041;246;2192;-47
2021/12/30 08:18:31;;;;;;;;;;;20.70;39.80;;;;;;482086;246;1253;-46
2021/12/30 08:20:32;;;;;;;;;;;20.70;39.80;;;;;;482219;246;1251;-46
2021/12/30 08:22:33;;;;;;;;;;;20.70;39.90;;;;;;481997;246;1134;-46
2021/12/30 08:24:34;;;;;;;;;;;20.70;39.90;;;;;;482256;246;1079;-46
2021/12/30 08:26:36;;;;;;;;;;;20.70;39.90;;;;;;482055;246;1164;-46
2021/12/30 08:28:37;;;;;;;;;;;20.70;40.00;;;;;;482437;246;1232;-46
2021/12/30 08:30:38;;;;;;;;;;;20.70;40.10;;;;;;482500;246;1413;-46
2021/12/30 08:32:40;;;;;;;;;;;20.70;40.00;;;;;;482222;246;1234;-46
2021/12/30 08:34:41;;;;;;;;;;;20.70;40.00;;;;;;482123;246;1225;-46
2021/12/30 08:36:42;;;;;;;;;;;20.70;40.00;;;;;;482086;246;2197;-46
2021/12/30 08:38:44;;;;;;;;;;;20.70;40.10;;;;;;482591;246;1201;-46
2021/12/30 08:40:47;;;;;;;;;;;20.60;40.20;;;;;;482315;246;1381;-47
2021/12/30 08:42:47;;;;;;;;;;;20.70;40.30;;;;;;481912;247;2168;-46
2021/12/30 08:44:48;;;;;;;;;;;20.70;40.20;;;;;;482033;246;1184;-46
2021/12/30 08:46:49;;;;;;;;;;;20.70;40.30;;;;;;481882;246;1436;-47
2021/12/30 08:48:51;;;;;;;;;;;20.60;40.30;;;;;;481957;246;1081;-46
2021/12/30 08:50:52;;;;;;;;;;;20.70;40.40;;;;;;481911;246;1340;-46
2021/12/30 08:52:53;;;;;;;;;;;20.70;40.40;;;;;;482006;246;1208;-46
2021/12/30 08:54:55;;;;;;;;;;;20.60;40.50;;;;;;482267;246;1081;-46
2021/12/30 08:56:56;;;;;;;;;;;20.60;40.50;;;;;;482144;246;2276;-46
2021/12/30 08:58:57;;;;;;;;;;;20.60;40.50;;;;;;482093;246;1261;-46
2021/12/30 09:00:59;;;;;;;;;;;20.70;40.50;;;;;;482394;246;1258;-47
2021/12/30 09:03:04;;;;;;;;;;;20.60;40.50;;;;;;482022;246;1208;-46
2021/12/30 09:05:02;;;;;;;;;;;20.60;40.60;;;;;;481882;247;2235;-46
2021/12/30 09:07:04;;;;;;;;;;;20.60;40.60;;;;;;482052;243;1122;-46
2021/12/30 09:09:05;;;;;;;;;;;20.60;40.60;;;;;;482019;246;1156;-46
2021/12/30 09:11:06;;;;;;;;;;;20.60;40.70;;;;;;482323;246;1350;-46
2021/12/30 09:13:08;;;;;;;;;;;20.60;40.60;;;;;;482044;246;1170;-46
2021/12/30 09:15:10;;;;;;;;;;;20.60;40.60;;;;;;482169;246;1089;-46
2021/12/30 09:17:11;;;;;;;;;;;20.60;40.70;;;;;;482028;246;2157;-46
2021/12/30 09:19:12;;;;;;;;;;;20.60;40.70;;;;;;481994;246;1047;-46
2021/12/30 09:21:13;;;;;;;;;;;20.60;40.80;;;;;;481999;246;1200;-46
2021/12/30 09:23:15;;;;;;;;;;;20.60;40.80;;;;;;482053;246;1189;-46
2021/12/30 09:25:19;;;;;;;;;;;20.60;40.80;;;;;;482143;246;1065;-46
2021/12/30 09:27:17;;;;;;;;;;;20.60;40.80;;;;;;481802;247;2019;-46
2021/12/30 09:29:19;;;;;;;;;;;20.50;40.90;;;;;;482448;246;1114;-46
2021/12/30 09:31:20;;;;;;;;;;;20.60;41.00;;;;;;482003;246;1235;-46
2021/12/30 09:33:22;;;;;;;;;;;20.50;41.00;;;;;;482521;246;1222;-46
2021/12/30 09:35:23;;;;;;;;;;;20.50;41.10;;;;;;482264;246;1203;-47
2021/12/30 09:37:24;;;;;;;;;;;20.60;41.10;;;;;;481964;246;2125;-46
2021/12/30 09:39:25;;;;;;;;;;;20.60;41.10;;;;;;482083;246;1274;-46
2021/12/30 09:41:26;;;;;;;;;;;20.50;41.10;;;;;;482097;246;1362;-46
2021/12/30 09:43:28;;;;;;;;;;;20.60;41.20;;;;;;482026;246;1276;-46
2021/12/30 09:45:29;;;;;;;;;;;20.50;41.10;;;;;;481988;246;1105;-46
2021/12/30 09:47:30;;;;;;;;;;;20.60;41.20;;;;;;481958;246;1311;-46
2021/12/30 09:49:32;;;;;;;;;;;20.60;41.20;;;;;;482089;246;1071;-46
2021/12/30 09:51:34;;;;;;;;;;;20.50;41.20;;;;;;482194;246;1345;-46
2021/12/30 09:53:35;;;;;;;;;;;20.50;41.30;;;;;;482082;246;2266;-46
2021/12/30 09:55:36;;;;;;;;;;;20.50;41.30;;;;;;482048;246;1664;-46
2021/12/30 09:57:37;;;;;;;;;;;20.60;41.30;;;;;;482011;246;2272;-47
2021/12/30 09:59:39;;;;;;;;;;;20.50;41.30;;;;;;482293;246;1062;-46
2021/12/30 10:01:40;;;;;;;;;;;20.50;41.20;;;;;;481866;246;1333;-46
2021/12/30 10:03:42;;;;;;;;;;;20.60;41.40;;;;;;482183;246;1234;-46
2021/12/30 10:05:43;;;;;;;;;;;20.50;41.40;;;;;;482014;246;1133;-46
2021/12/30 10:07:44;;;;;;;;;;;20.50;41.40;;;;;;482155;246;1600;-46
2021/12/30 10:09:50;;;;;;;;;;;20.50;41.50;;;;;;482024;246;1208;-46
2021/12/30 10:11:48;;;;;;;;;;;20.50;41.50;;;;;;481967;247;2376;-46
2021/12/30 10:13:49;;;;;;;;;;;20.50;41.50;;;;;;482034;246;1339;-46
2021/12/30 10:15:50;;;;;;;;;;;20.50;41.50;;;;;;481952;246;1177;-47
2021/12/30 10:17:52;;;;;;;;;;;20.50;41.50;;;;;;481950;246;2201;-46
2021/12/30 10:19:53;;;;;;;;;;;20.50;41.50;;;;;;482152;246;1106;-46
2021/12/30 10:21:54;;;;;;;;;;;20.60;41.50;;;;;;482047;246;1166;-46
2021/12/30 10:23:56;;;;;;;;;;;20.50;41.50;;;;;;482027;246;1037;-46
2021/12/30 10:25:57;;;;;;;;;;;20.50;41.50;;;;;;482006;246;1251;-46
2021/12/30 10:27:58;;;;;;;;;;;20.50;41.60;;;;;;482020;246;1160;-46
2021/12/30 10:30:00;;;;;;;;;;;20.50;41.60;;;;;;482107;246;1058;-46
2021/12/30 10:32:01;;;;;;;;;;;20.50;41.70;;;;;;481935;246;1236;-46
2021/12/30 10:34:04;;;;;;;;;;;20.50;41.80;;;;;;482111;246;1183;-46
2021/12/30 10:36:04;;;;;;;;;;;20.50;41.90;;;;;;482119;247;2158;-47
2021/12/30 10:38:08;;;;;;;;;;;20.40;41.90;;;;;;482203;246;2102;-46
2021/12/30 10:40:06;;;;;;;;;;;20.50;41.80;;;;;;481983;247;2115;-46
2021/12/30 10:42:09;;;;;;;;;;;20.50;41.80;;;;;;482056;246;1343;-46
2021/12/30 10:44:09;;;;;;;;;;;20.50;41.90;;;;;;482304;247;2329;-46
2021/12/30 10:46:10;;;;;;;;;;;20.50;41.90;;;;;;482176;246;1194;-46
2021/12/30 10:48:11;;;;;;;;;;;20.50;41.90;;;;;;482137;246;1197;-46
2021/12/30 10:50:13;;;;;;;;;;;20.50;42.00;;;;;;482302;246;1052;-46
2021/12/30 10:52:16;;;;;;;;;;;20.40;42.10;;;;;;481929;246;1548;-46
2021/12/30 10:54:15;;;;;;;;;;;20.40;42.00;;;;;;481893;247;2105;-46
2021/12/30 10:56:17;;;;;;;;;;;20.40;42.10;;;;;;482059;244;1177;-47
2021/12/30 10:58:18;;;;;;;;;;;20.40;42.10;;;;;;482064;246;2185;-46
2021/12/30 11:00:20;;;;;;;;;;;20.40;42.00;;;;;;482377;246;1038;-46
2021/12/30 11:02:21;;;;;;;;;;;20.50;42.00;;;;;;481888;246;1172;-46
2021/12/30 11:04:22;;;;;;;;;;;20.50;42.20;;;;;;482401;246;1274;-46
2021/12/30 11:06:24;;;;;;;;;;;20.40;42.10;;;;;;481991;246;1271;-46
2021/12/30 11:08:26;;;;;;;;;;;20.40;42.10;;;;;;482226;246;1166;-46
2021/12/30 11:10:26;;;;;;;;;;;20.40;42.20;;;;;;482098;246;2420;-46
2021/12/30 11:12:28;;;;;;;;;;;20.40;42.10;;;;;;482092;246;1591;-46
2021/12/30 11:14:30;;;;;;;;;;;20.40;42.20;;;;;;482361;246;1061;-46
2021/12/30 11:16:31;;;;;;;;;;;20.40;42.30;;;;;;481978;246;2205;-46
2021/12/30 11:18:32;;;;;;;;;;;20.40;42.30;;;;;;482084;246;1288;-46
2021/12/30 11:20:34;;;;;;;;;;;20.40;42.30;;;;;;482292;246;1493;-46
2021/12/30 11:22:36;;;;;;;;;;;20.40;42.40;;;;;;482088;246;1528;-46
2021/12/30 11:24:37;;;;;;;;;;;20.40;42.40;;;;;;482326;246;1091;-47
2021/12/30 11:26:38;;;;;;;;;;;20.40;42.40;;;;;;482016;246;1519;-46
2021/12/30 11:28:39;;;;;;;;;;;20.40;42.40;;;;;;482377;246;1050;-47
2021/12/30 11:30:41;;;;;;;;;;;20.40;42.40;;;;;;482024;246;1391;-46
2021/12/30 11:32:47;;;;;;;;;;;20.40;42.40;;;;;;481973;246;1319;-46
2021/12/30 11:34:44;;;;;;;;;;;20.40;42.40;;;;;;481750;247;2173;-46
2021/12/30 11:36:45;;;;;;;;;;;20.40;42.50;;;;;;481826;246;2201;-46
2021/12/30 11:38:46;;;;;;;;;;;20.40;42.50;;;;;;482133;246;1045;-46
2021/12/30 11:40:48;;;;;;;;;;;20.40;42.50;;;;;;482350;246;1483;-45
2021/12/30 11:42:52;;;;;;;;;;;20.40;42.50;;;;;;481964;246;1201;-47
2021/12/30 11:44:51;;;;;;;;;;;20.40;42.60;;;;;;481970;247;2172;-46
2021/12/30 11:46:52;;;;;;;;;;;20.40;42.60;;;;;;481905;246;1621;-46
2021/12/30 11:48:53;;;;;;;;;;;20.40;42.50;;;;;;482154;246;1183;-46
2021/12/30 11:50:55;;;;;;;;;;;20.50;42.50;;;;;;482139;246;1179;-46
2021/12/30 11:52:56;;;;;;;;;;;20.50;42.50;;;;;;482011;246;1162;-47
2021/12/30 11:54:57;;;;;;;;;;;20.40;42.50;;;;;;482169;246;1228;-46
2021/12/30 11:56:59;;;;;;;;;;;20.40;42.60;;;;;;481978;246;2130;-46